Terminal Aerodrome Forecast
Issued by NWS

Home | Current Version | Previous Version | Text Only | Print | Product List | Glossary Off
Versions: 1 2 3 4 5 6 7 8 9 10 11 12 13 14 15 16 17 18 19 20 21 22 23 24 25 26 27

000
FTUS43 KABR 281600 AAD
TAFATY
TAF AMD
KATY 281614Z 2816/2912 17015KT P6SM SCT012
     FM281700 17016G23KT P6SM SKC
     FM281800 18023G33KT P6SM SKC
     FM290500 19017KT P6SM -SHRA OVC070
     FM290900 23014KT P6SM BKN100=

USA.gov is the U.S. government's official web portal to all federal, state and local government web resources and services.